KLAW/LAW METAR and TAF weather

Enter ICAO airport designator
Station Type Date Time Source
KLAW METAR 2022/01/29 12:53 UTC NOAA

KLAW 291253Z AUTO 00000KT 10SM CLR M07/M09 A3029 RMK AO2 SLP269 I1000 T10721089


Station Type Date Time Source
KLAW Decoded METAR 2022/01/29 12:53 UTC NOAA

LAWTON - FORT SILL REGIONAL, OK, United States (KLAW) 34-34N 98-25W 337M
Jan 29, 2022 - 07:53 AM EST / 2022.01.29 1253 UTC
Wind: Calm:0
Visibility: 10 mile(s):0
Sky conditions: clear
Temperature: 19.0 F (-7.2 C)
Dew Point: 16.0 F (-8.9 C)
Relative Humidity: 87%
Pressure (altimeter): 30.29 in. Hg (1025 hPa)
ob: KLAW 291253Z AUTO 00000KT 10SM CLR M07/M09 A3029 RMK AO2 SLP269 I1000 T10721089
cycle: 13

Station Type Date Time Source
KLAW TAF 2022/01/29 12:22 UTC NOAA

TAF KLAW 291120Z 2912/3012 VRB03KT P6SM SKC
FM291400 23009KT P6SM SKC
FM291900 24013G18KT P6SM SKC
FM300000 21005KT P6SM SKC

Example: see airport list